createdAt,value
2019-01-29T00:00:27.210Z,56.30
2019-01-29T00:02:28.796Z,56.72
2019-01-29T00:04:30.393Z,56.85
2019-01-29T00:06:31.993Z,56.78
2019-01-29T00:08:33.633Z,56.82
2019-01-29T00:10:35.234Z,56.93
2019-01-29T00:12:36.832Z,57.79
2019-01-29T00:14:38.429Z,57.17
2019-01-29T00:16:40.025Z,57.46
2019-01-29T00:18:41.625Z,57.76
2019-01-29T00:20:43.306Z,57.60
2019-01-29T00:22:44.907Z,57.79
2019-01-29T00:24:46.637Z,57.09
2019-01-29T00:26:48.388Z,57.50
2019-01-29T00:28:49.986Z,57.20
2019-01-29T00:30:51.597Z,57.01
2019-01-29T00:32:53.221Z,56.83
2019-01-29T00:34:54.817Z,56.69
2019-01-29T00:36:56.419Z,56.33
2019-01-29T00:38:58.028Z,56.48
2019-01-29T00:40:59.615Z,56.12
2019-01-29T00:43:01.259Z,56.12
2019-01-29T00:45:02.857Z,56.12
2019-01-29T00:47:04.477Z,55.75
2019-01-29T00:49:06.067Z,55.89
2019-01-29T00:51:07.693Z,55.98
2019-01-29T00:53:09.283Z,56.31
2019-01-29T00:55:10.913Z,56.55
2019-01-29T00:57:12.513Z,56.43
2019-01-29T00:59:14.100Z,56.63
2019-01-29T01:01:15.730Z,56.82
2019-01-29T01:03:17.378Z,56.60
2019-01-29T01:05:18.979Z,56.62
2019-01-29T01:07:20.595Z,56.46
2019-01-29T01:09:22.194Z,56.95
2019-01-29T01:11:23.793Z,56.54
2019-01-29T01:13:25.391Z,56.55
2019-01-29T01:15:27.024Z,56.73
2019-01-29T01:17:28.636Z,56.75
2019-01-29T01:19:30.248Z,56.96
2019-01-29T01:21:31.853Z,56.73
2019-01-29T01:23:33.458Z,56.79
2019-01-29T01:25:35.049Z,57.35
2019-01-29T01:27:36.683Z,57.03
2019-01-29T01:29:38.300Z,57.06
2019-01-29T01:31:39.902Z,57.32
2019-01-29T01:33:41.537Z,57.26
2019-01-29T01:35:43.143Z,57.36
2019-01-29T01:37:44.732Z,57.15
2019-01-29T01:39:46.316Z,57.33
2019-01-29T01:41:47.928Z,57.68
2019-01-29T01:43:49.535Z,57.49
2019-01-29T01:45:51.172Z,57.47
2019-01-29T01:47:52.769Z,57.39
2019-01-29T01:49:54.376Z,57.34
2019-01-29T01:51:55.989Z,57.30
2019-01-29T01:53:57.600Z,58.14
2019-01-29T01:55:59.204Z,57.71
2019-01-29T01:58:00.837Z,57.36
2019-01-29T02:00:02.422Z,57.24
2019-01-29T02:02:04.021Z,57.10
2019-01-29T02:04:05.628Z,56.99
2019-01-29T02:06:07.279Z,57.23
2019-01-29T02:08:08.864Z,56.75
2019-01-29T02:10:10.461Z,57.18
2019-01-29T02:12:12.053Z,57.23
2019-01-29T02:14:13.650Z,57.31
2019-01-29T02:16:15.294Z,57.27
2019-01-29T02:18:16.899Z,57.29
2019-01-29T02:20:18.498Z,57.27
2019-01-29T02:22:20.148Z,56.97
2019-01-29T02:24:21.765Z,56.85
2019-01-29T02:26:23.362Z,56.77
2019-01-29T02:28:24.997Z,56.89
2019-01-29T02:30:26.590Z,57.16
2019-01-29T02:32:28.190Z,57.25
2019-01-29T02:34:29.800Z,57.17
2019-01-29T02:36:31.403Z,57.30
2019-01-29T02:38:33.003Z,57.15
2019-01-29T02:40:34.602Z,57.13
2019-01-29T02:42:36.237Z,56.02
2019-01-29T02:44:37.833Z,55.76
2019-01-29T02:46:39.429Z,55.46
2019-01-29T02:48:41.031Z,56.02
2019-01-29T02:50:42.644Z,56.01
2019-01-29T02:52:44.256Z,55.82
2019-01-29T02:54:45.896Z,56.12
2019-01-29T02:56:47.505Z,55.98
2019-01-29T02:58:49.105Z,55.83
2019-01-29T03:00:50.749Z,55.62
2019-01-29T03:02:52.345Z,55.71
2019-01-29T03:04:53.962Z,55.70
2019-01-29T03:06:55.560Z,55.61
2019-01-29T03:08:57.168Z,55.48
2019-01-29T03:10:58.763Z,55.41
2019-01-29T03:13:00.406Z,55.63
2019-01-29T03:15:02.030Z,55.58
2019-01-29T03:17:03.634Z,55.61
2019-01-29T03:19:05.236Z,55.62
2019-01-29T03:21:06.848Z,55.61
2019-01-29T03:23:08.449Z,55.80
2019-01-29T03:25:10.062Z,56.01
2019-01-29T03:27:11.684Z,56.30
2019-01-29T03:29:13.286Z,56.68
2019-01-29T03:31:14.922Z,56.42
2019-01-29T03:33:16.907Z,56.65
2019-01-29T03:35:18.507Z,56.73
2019-01-29T03:37:20.186Z,56.56
2019-01-29T03:39:21.771Z,56.71
2019-01-29T03:41:23.431Z,56.76
2019-01-29T03:43:25.067Z,56.57
2019-01-29T03:45:26.707Z,56.30
2019-01-29T03:47:28.324Z,55.99
2019-01-29T03:49:29.918Z,55.77
2019-01-29T03:51:31.536Z,54.82
2019-01-29T03:53:38.195Z,55.14
2019-01-29T03:55:34.800Z,44.40
2019-01-29T03:57:36.397Z,47.23
2019-01-29T03:59:37.983Z,49.83
2019-01-29T04:01:39.621Z,48.41
2019-01-29T04:03:41.223Z,48.11
2019-01-29T04:05:42.819Z,48.32
2019-01-29T04:07:44.459Z,48.42
2019-01-29T04:09:46.043Z,48.66
2019-01-29T04:11:47.643Z,48.72
2019-01-29T04:13:49.242Z,48.77
2019-01-29T04:15:50.847Z,48.80
2019-01-29T04:17:52.466Z,48.93
2019-01-29T04:19:54.089Z,48.82
2019-01-29T04:21:55.686Z,48.91
2019-01-29T04:23:57.282Z,48.96
2019-01-29T04:25:58.909Z,48.98
2019-01-29T04:28:00.502Z,49.09
2019-01-29T04:30:02.097Z,49.10
2019-01-29T04:32:03.730Z,49.19
2019-01-29T04:34:05.713Z,49.30
2019-01-29T04:36:07.333Z,49.41
2019-01-29T04:38:08.963Z,49.49
2019-01-29T04:40:10.555Z,49.66
2019-01-29T04:42:12.179Z,49.81
2019-01-29T04:44:13.779Z,49.91
2019-01-29T04:46:15.379Z,50.01
2019-01-29T04:48:17.012Z,50.14
2019-01-29T04:50:18.596Z,50.27
2019-01-29T04:52:20.184Z,50.40
2019-01-29T04:54:21.806Z,50.50
2019-01-29T04:56:23.414Z,50.59
2019-01-29T04:58:25.008Z,50.68
2019-01-29T05:00:26.601Z,50.79
2019-01-29T05:02:28.261Z,50.89
2019-01-29T05:04:29.857Z,50.98
2019-01-29T05:06:31.457Z,51.11
2019-01-29T05:08:33.055Z,51.22
2019-01-29T05:10:34.658Z,51.34
2019-01-29T05:12:36.260Z,51.38
2019-01-29T05:14:37.893Z,51.53
2019-01-29T05:16:39.486Z,51.63
2019-01-29T05:18:41.080Z,51.68
2019-01-29T05:20:42.721Z,51.79
2019-01-29T05:22:44.317Z,51.95
2019-01-29T05:24:45.913Z,51.95
2019-01-29T05:26:47.583Z,51.98
2019-01-29T05:28:49.190Z,51.93
2019-01-29T05:30:50.790Z,51.87
2019-01-29T05:32:52.412Z,51.83
2019-01-29T05:34:54.027Z,51.69
2019-01-29T05:36:55.641Z,51.55
2019-01-29T05:38:57.257Z,51.41
2019-01-29T05:40:58.850Z,51.25
2019-01-29T05:43:00.445Z,51.02
2019-01-29T05:45:02.080Z,50.85
2019-01-29T05:47:03.717Z,50.64
2019-01-29T05:49:05.310Z,50.42
2019-01-29T05:51:06.916Z,50.31
2019-01-29T05:53:08.537Z,50.11
2019-01-29T05:55:10.149Z,50.03
2019-01-29T05:57:11.778Z,49.96
2019-01-29T05:59:13.388Z,49.81
2019-01-29T06:01:14.995Z,49.72
2019-01-29T06:03:16.603Z,49.68
2019-01-29T06:05:18.259Z,49.66
2019-01-29T06:07:19.858Z,49.64
2019-01-29T06:09:21.457Z,49.63
2019-01-29T06:11:23.066Z,49.61
2019-01-29T06:13:24.662Z,49.68
2019-01-29T06:15:26.263Z,49.73
2019-01-29T06:17:27.895Z,49.79
2019-01-29T06:19:29.505Z,49.84
2019-01-29T06:21:31.252Z,49.87
2019-01-29T06:23:32.846Z,49.98
2019-01-29T06:25:34.442Z,50.06
2019-01-29T06:27:36.052Z,50.14
2019-01-29T06:29:37.645Z,50.23
2019-01-29T06:31:39.251Z,50.31
2019-01-29T06:33:40.864Z,50.38
2019-01-29T06:35:42.461Z,50.38
2019-01-29T06:37:44.057Z,50.47
2019-01-29T06:39:45.693Z,50.51
2019-01-29T06:41:47.299Z,50.56
2019-01-29T06:43:48.902Z,50.59
2019-01-29T06:45:50.502Z,50.66
2019-01-29T06:47:52.102Z,50.68
2019-01-29T06:49:53.716Z,50.68
2019-01-29T06:51:55.324Z,50.72
2019-01-29T06:53:56.911Z,50.78
2019-01-29T06:55:58.537Z,50.81
2019-01-29T06:58:00.167Z,50.78
2019-01-29T07:00:01.772Z,50.78
2019-01-29T07:02:03.382Z,50.75
2019-01-29T07:04:04.995Z,50.65
2019-01-29T07:06:06.589Z,50.63
2019-01-29T07:08:08.200Z,50.53
2019-01-29T07:10:09.793Z,50.43
2019-01-29T07:12:11.386Z,50.27
2019-01-29T07:14:12.999Z,50.09
2019-01-29T07:16:19.313Z,49.91
2019-01-29T07:18:26.509Z,49.71
2019-01-29T07:20:28.120Z,49.52
2019-01-29T07:22:29.707Z,49.39
2019-01-29T07:24:31.310Z,49.29
2019-01-29T07:26:32.920Z,49.21
2019-01-29T07:28:34.517Z,49.17
2019-01-29T07:30:36.158Z,49.08
2019-01-29T07:32:37.757Z,49.03
2019-01-29T07:34:39.339Z,49.03
2019-01-29T07:36:40.925Z,49.01
2019-01-29T07:38:42.536Z,49.02
2019-01-29T07:40:44.157Z,49.10
2019-01-29T07:42:45.766Z,49.13
2019-01-29T07:44:47.361Z,49.26
2019-01-29T07:46:48.953Z,49.28
2019-01-29T07:48:50.537Z,49.36
2019-01-29T07:50:52.137Z,49.42
2019-01-29T07:52:53.842Z,49.52
2019-01-29T07:54:55.452Z,49.54
2019-01-29T07:56:57.049Z,49.57
2019-01-29T07:58:58.655Z,49.62
2019-01-29T08:01:00.254Z,49.65
2019-01-29T08:03:01.888Z,49.67
2019-01-29T08:05:03.497Z,49.74
2019-01-29T08:07:05.093Z,49.80
2019-01-29T08:09:06.680Z,49.83
2019-01-29T08:11:08.273Z,49.87
2019-01-29T08:13:09.884Z,49.89
2019-01-29T08:15:11.496Z,49.88
2019-01-29T08:17:13.117Z,49.90
2019-01-29T08:19:14.709Z,49.87
2019-01-29T08:21:16.319Z,49.83
2019-01-29T08:23:17.904Z,49.80
2019-01-29T08:25:19.511Z,49.74
2019-01-29T08:27:21.106Z,49.67
2019-01-29T08:29:22.702Z,49.58
2019-01-29T08:31:24.293Z,49.51
2019-01-29T08:33:25.900Z,49.37
2019-01-29T08:35:27.507Z,49.20
2019-01-29T08:37:29.106Z,49.02
2019-01-29T08:39:30.715Z,48.88
2019-01-29T08:41:32.339Z,48.75
2019-01-29T08:43:33.952Z,48.58
2019-01-29T08:45:35.568Z,48.51
2019-01-29T08:47:37.190Z,48.39
2019-01-29T08:49:38.793Z,48.35
2019-01-29T08:51:40.390Z,48.30
2019-01-29T08:53:41.975Z,48.28
2019-01-29T08:55:43.560Z,48.28
2019-01-29T08:57:45.155Z,48.28
2019-01-29T08:59:46.749Z,48.35
2019-01-29T09:01:49.198Z,48.40
2019-01-29T09:03:50.784Z,48.46
2019-01-29T09:05:52.382Z,48.50
2019-01-29T09:07:56.582Z,48.54
2019-01-29T09:09:58.182Z,48.61
2019-01-29T09:11:59.812Z,48.66
2019-01-29T09:14:01.434Z,48.71
2019-01-29T09:16:03.033Z,48.76
2019-01-29T09:18:04.670Z,48.77
2019-01-29T09:20:06.265Z,48.83
2019-01-29T09:22:07.857Z,48.76
2019-01-29T09:24:09.518Z,48.65
2019-01-29T09:26:11.132Z,48.69
2019-01-29T09:28:18.386Z,48.73
2019-01-29T09:30:14.455Z,48.83
2019-01-29T09:32:16.072Z,48.93
2019-01-29T09:34:18.214Z,48.93
2019-01-29T09:36:19.819Z,48.96
2019-01-29T09:38:21.467Z,48.88
2019-01-29T09:40:23.071Z,48.86
2019-01-29T09:42:25.200Z,48.84
2019-01-29T09:44:26.441Z,48.78
2019-01-29T09:46:28.034Z,48.75
2019-01-29T09:48:29.675Z,48.73
2019-01-29T09:50:31.362Z,48.71
2019-01-29T09:52:32.994Z,48.70
2019-01-29T09:54:34.590Z,48.69
2019-01-29T09:56:36.195Z,48.66
2019-01-29T09:58:37.818Z,48.55
2019-01-29T10:00:39.413Z,48.49
2019-01-29T10:02:41.002Z,48.37
2019-01-29T10:04:42.597Z,48.29
2019-01-29T10:06:44.200Z,48.25
2019-01-29T10:08:45.794Z,48.17
2019-01-29T10:10:47.426Z,48.02
2019-01-29T10:12:49.030Z,47.83
2019-01-29T10:14:50.616Z,47.80
2019-01-29T10:16:52.223Z,47.75
2019-01-29T10:18:53.825Z,47.72
2019-01-29T10:20:55.426Z,47.74
2019-01-29T10:22:57.050Z,47.63
2019-01-29T10:24:58.650Z,47.70
2019-01-29T10:27:00.245Z,47.71
2019-01-29T10:29:01.841Z,47.80
2019-01-29T10:31:03.433Z,47.89
2019-01-29T10:33:05.083Z,47.94
2019-01-29T10:35:06.695Z,48.01
2019-01-29T10:37:08.305Z,48.04
2019-01-29T10:39:09.901Z,48.12
2019-01-29T10:41:11.512Z,48.18
2019-01-29T10:43:13.105Z,48.15
2019-01-29T10:45:14.737Z,48.22
2019-01-29T10:47:16.505Z,48.38
2019-01-29T10:49:18.128Z,48.43
2019-01-29T10:51:19.726Z,48.51
2019-01-29T10:53:21.368Z,48.50
2019-01-29T10:55:22.966Z,48.48
2019-01-29T10:57:24.563Z,48.49
2019-01-29T10:59:26.184Z,48.55
2019-01-29T11:01:27.791Z,48.60
2019-01-29T11:03:29.372Z,48.64
2019-01-29T11:05:31.098Z,48.54
2019-01-29T11:07:32.663Z,48.49
2019-01-29T11:09:34.258Z,48.49
2019-01-29T11:11:35.899Z,48.44
2019-01-29T11:13:37.512Z,48.33
2019-01-29T11:15:39.140Z,48.28
2019-01-29T11:17:40.769Z,48.22
2019-01-29T11:19:42.352Z,48.14
2019-01-29T11:21:43.946Z,48.02
2019-01-29T11:23:46.045Z,47.85
2019-01-29T11:25:55.427Z,47.66
2019-01-29T11:27:49.408Z,47.52
2019-01-29T11:29:51.075Z,47.41
2019-01-29T11:31:52.688Z,47.38
2019-01-29T11:33:54.280Z,47.33
2019-01-29T11:35:55.933Z,47.34
2019-01-29T11:37:57.521Z,47.30
2019-01-29T11:39:59.127Z,47.30
2019-01-29T11:42:00.765Z,47.28
2019-01-29T11:44:02.375Z,47.33
2019-01-29T11:46:04.036Z,47.39
2019-01-29T11:48:05.639Z,47.46
2019-01-29T11:50:07.308Z,47.42
2019-01-29T11:52:08.915Z,47.48
2019-01-29T11:54:10.524Z,47.53
2019-01-29T11:56:12.135Z,47.56
2019-01-29T11:58:13.767Z,47.67
2019-01-29T12:00:15.357Z,47.72
2019-01-29T12:02:16.977Z,47.78
2019-01-29T12:04:18.573Z,47.88
2019-01-29T12:06:20.183Z,47.93
2019-01-29T12:08:21.778Z,48.01
2019-01-29T12:10:23.418Z,48.04
2019-01-29T12:12:25.013Z,48.10
2019-01-29T12:14:26.622Z,48.11
2019-01-29T12:16:28.223Z,48.17
2019-01-29T12:18:29.871Z,48.20
2019-01-29T12:20:31.483Z,48.24
2019-01-29T12:22:33.096Z,48.29
2019-01-29T12:24:34.780Z,48.37
2019-01-29T12:26:36.382Z,48.35
2019-01-29T12:28:37.991Z,48.36
2019-01-29T12:30:39.593Z,48.42
2019-01-29T12:32:41.190Z,48.42
2019-01-29T12:34:42.800Z,48.43
2019-01-29T12:36:44.411Z,48.38
2019-01-29T12:38:46.064Z,48.39
2019-01-29T12:40:47.666Z,48.34
2019-01-29T12:42:49.284Z,48.30
2019-01-29T12:44:50.940Z,48.13
2019-01-29T12:46:52.553Z,48.03
2019-01-29T12:48:54.167Z,47.89
2019-01-29T12:50:55.805Z,47.77
2019-01-29T12:52:59.950Z,47.65
2019-01-29T12:55:01.566Z,47.51
2019-01-29T12:57:03.229Z,47.47
2019-01-29T12:59:04.834Z,47.35
2019-01-29T13:01:06.473Z,47.29
2019-01-29T13:03:08.091Z,47.25
2019-01-29T13:05:09.721Z,47.22
2019-01-29T13:07:11.454Z,47.21
2019-01-29T13:09:13.055Z,47.26
2019-01-29T13:11:14.668Z,47.31
2019-01-29T13:13:16.319Z,47.33
2019-01-29T13:15:17.917Z,47.37
2019-01-29T13:17:19.510Z,47.43
2019-01-29T13:19:21.111Z,47.48
2019-01-29T13:21:22.715Z,47.57
2019-01-29T13:23:24.318Z,47.66
2019-01-29T13:25:26.005Z,47.72
2019-01-29T13:27:27.620Z,47.80
2019-01-29T13:29:29.318Z,47.90
2019-01-29T13:31:31.420Z,47.97
2019-01-29T13:33:33.056Z,47.98
2019-01-29T13:35:34.654Z,48.06
2019-01-29T13:37:36.292Z,48.14
2019-01-29T13:39:37.929Z,48.25
2019-01-29T13:41:39.533Z,48.35
2019-01-29T13:43:41.130Z,48.46
2019-01-29T13:45:42.745Z,48.53
2019-01-29T13:47:44.420Z,48.64
2019-01-29T13:49:46.035Z,48.70
2019-01-29T13:51:47.653Z,48.78
2019-01-29T13:53:49.292Z,48.86
2019-01-29T13:55:50.893Z,48.86
2019-01-29T13:57:52.489Z,48.85
2019-01-29T13:59:54.096Z,48.82
2019-01-29T14:01:57.674Z,48.65
2019-01-29T14:04:05.807Z,48.53
2019-01-29T14:05:59.061Z,48.39
2019-01-29T14:08:00.679Z,48.25
2019-01-29T14:10:02.277Z,48.06
2019-01-29T14:12:03.933Z,47.86
2019-01-29T14:14:05.530Z,47.71
2019-01-29T14:16:07.144Z,47.56
2019-01-29T14:18:08.949Z,47.42
2019-01-29T14:20:10.606Z,47.27
2019-01-29T14:22:12.241Z,47.09
2019-01-29T14:24:13.838Z,47.04
2019-01-29T14:26:15.451Z,46.98
2019-01-29T14:28:17.053Z,46.90
2019-01-29T14:30:18.694Z,46.86
2019-01-29T14:32:20.290Z,46.80
2019-01-29T14:34:21.930Z,46.79
2019-01-29T14:36:23.533Z,46.84
2019-01-29T14:38:25.120Z,46.67
2019-01-29T14:40:26.736Z,46.77
2019-01-29T14:42:28.334Z,46.82
2019-01-29T14:44:29.952Z,46.94
2019-01-29T14:46:31.549Z,47.16
2019-01-29T14:48:33.215Z,47.52
2019-01-29T14:50:34.853Z,47.90
2019-01-29T14:52:36.454Z,48.12
2019-01-29T14:54:38.049Z,48.24
2019-01-29T14:56:39.633Z,48.67
2019-01-29T14:58:41.278Z,48.83
2019-01-29T15:00:42.942Z,48.83
2019-01-29T15:02:44.613Z,49.09
2019-01-29T15:04:46.264Z,49.23
2019-01-29T15:06:47.903Z,49.12
2019-01-29T15:08:49.512Z,49.17
2019-01-29T15:10:51.182Z,49.32
2019-01-29T15:12:52.799Z,49.62
2019-01-29T15:14:54.460Z,49.77
2019-01-29T15:16:56.100Z,49.85
2019-01-29T15:18:58.436Z,49.86
2019-01-29T15:21:00.038Z,49.71
2019-01-29T15:23:01.647Z,49.66
2019-01-29T15:25:03.277Z,49.81
2019-01-29T15:27:05.973Z,49.44
2019-01-29T15:29:06.515Z,49.21
2019-01-29T15:31:08.152Z,49.13
2019-01-29T15:33:09.751Z,49.09
2019-01-29T15:35:11.363Z,49.07
2019-01-29T15:37:13.018Z,50.85
2019-01-29T15:39:14.675Z,49.31
2019-01-29T15:41:16.269Z,49.40
2019-01-29T15:43:17.865Z,48.98
2019-01-29T15:45:19.462Z,49.60
2019-01-29T15:47:21.068Z,49.40
2019-01-29T15:49:22.661Z,48.60
2019-01-29T15:51:24.297Z,49.00
2019-01-29T15:53:25.893Z,49.45
2019-01-29T15:55:27.490Z,49.22
2019-01-29T15:57:29.096Z,48.72
2019-01-29T15:59:30.694Z,48.94
2019-01-29T16:01:32.313Z,49.47
2019-01-29T16:03:33.913Z,49.34
2019-01-29T16:05:35.549Z,49.56
2019-01-29T16:07:37.148Z,49.49
2019-01-29T16:09:38.746Z,49.51
2019-01-29T16:11:40.385Z,49.30
2019-01-29T16:13:41.995Z,48.65
2019-01-29T16:15:43.581Z,48.22
2019-01-29T16:17:45.173Z,48.81
2019-01-29T16:19:46.769Z,47.70
2019-01-29T16:21:48.371Z,48.10
2019-01-29T16:23:50.020Z,47.37
2019-01-29T16:25:51.643Z,46.87
2019-01-29T16:27:53.242Z,47.86
2019-01-29T16:29:54.851Z,47.54
2019-01-29T16:31:56.463Z,47.04
2019-01-29T16:33:58.072Z,47.47
2019-01-29T16:35:59.716Z,47.47
2019-01-29T16:38:01.332Z,47.81
2019-01-29T16:40:02.940Z,47.89
2019-01-29T16:42:04.556Z,48.16
2019-01-29T16:44:06.204Z,48.31
2019-01-29T16:46:07.849Z,48.09
2019-01-29T16:48:09.461Z,47.91
2019-01-29T16:50:11.079Z,47.80
2019-01-29T16:52:12.690Z,48.17
2019-01-29T16:54:14.329Z,47.75
2019-01-29T16:56:15.989Z,47.62
2019-01-29T16:58:17.601Z,48.32
2019-01-29T17:00:19.197Z,47.57
2019-01-29T17:02:20.812Z,48.39
2019-01-29T17:04:22.400Z,48.55
2019-01-29T17:06:23.994Z,48.36
2019-01-29T17:08:25.640Z,47.96
2019-01-29T17:10:27.280Z,47.81
2019-01-29T17:12:28.889Z,47.78
2019-01-29T17:14:30.500Z,47.94
2019-01-29T17:16:32.156Z,48.73
2019-01-29T17:18:33.767Z,49.12
2019-01-29T17:20:35.365Z,48.72
2019-01-29T17:22:36.961Z,48.96
2019-01-29T17:24:38.562Z,49.07
2019-01-29T17:26:40.176Z,49.48
2019-01-29T17:28:41.802Z,48.56
2019-01-29T17:30:43.409Z,48.54
2019-01-29T17:32:44.995Z,48.00
2019-01-29T17:34:46.595Z,47.88
2019-01-29T17:36:48.204Z,47.87
2019-01-29T17:38:49.937Z,47.69
2019-01-29T17:40:51.538Z,47.43
2019-01-29T17:42:53.168Z,47.52
2019-01-29T17:44:54.780Z,47.29
2019-01-29T17:46:56.377Z,47.77
2019-01-29T17:48:57.980Z,48.02
2019-01-29T17:50:59.699Z,48.22
2019-01-29T17:53:01.375Z,48.48
2019-01-29T17:55:03.008Z,48.60
2019-01-29T17:57:04.594Z,48.74
2019-01-29T17:59:06.200Z,48.64
2019-01-29T18:01:07.826Z,48.32
2019-01-29T18:03:09.444Z,47.29
2019-01-29T18:05:11.055Z,47.45
2019-01-29T18:07:12.667Z,47.78
2019-01-29T18:09:14.271Z,47.72
2019-01-29T18:11:15.894Z,47.75
2019-01-29T18:13:17.489Z,48.11
2019-01-29T18:15:19.120Z,48.06
2019-01-29T18:17:20.715Z,48.10
2019-01-29T18:19:22.299Z,48.04
2019-01-29T18:21:23.949Z,48.11
2019-01-29T18:23:25.546Z,47.84
2019-01-29T18:25:27.142Z,48.57
2019-01-29T18:27:28.737Z,48.73
2019-01-29T18:29:30.333Z,48.86
2019-01-29T18:31:31.954Z,48.33
2019-01-29T18:33:33.590Z,48.69
2019-01-29T18:35:35.186Z,47.80
2019-01-29T18:37:36.795Z,48.40
2019-01-29T18:39:38.414Z,48.50
2019-01-29T18:41:40.030Z,48.27
2019-01-29T18:43:41.633Z,48.47
2019-01-29T18:45:43.243Z,48.44
2019-01-29T18:47:44.889Z,48.64
2019-01-29T18:49:46.494Z,48.70
2019-01-29T18:51:48.099Z,48.81
2019-01-29T18:53:49.714Z,48.77
2019-01-29T18:55:51.314Z,48.85
2019-01-29T18:57:53.199Z,48.37
2019-01-29T18:59:54.900Z,47.83
2019-01-29T19:01:56.561Z,48.45
2019-01-29T19:03:58.161Z,47.90
2019-01-29T19:05:59.760Z,47.88
2019-01-29T19:08:01.396Z,48.32
2019-01-29T19:10:03.015Z,48.09
2019-01-29T19:12:04.668Z,48.29
2019-01-29T19:14:06.251Z,48.07
2019-01-29T19:16:07.887Z,47.61
2019-01-29T19:18:09.472Z,47.79
2019-01-29T19:20:11.066Z,47.72
2019-01-29T19:22:12.691Z,48.29
2019-01-29T19:24:14.309Z,48.21
2019-01-29T19:26:15.911Z,48.07
2019-01-29T19:28:22.248Z,48.45
2019-01-29T19:30:19.239Z,48.20
2019-01-29T19:32:20.838Z,48.00
2019-01-29T19:34:22.433Z,48.21
2019-01-29T19:36:24.077Z,48.33
2019-01-29T19:38:25.823Z,48.35
2019-01-29T19:40:27.595Z,48.60
2019-01-29T19:42:29.302Z,48.63
2019-01-29T19:44:30.920Z,48.59
2019-01-29T19:46:32.517Z,47.84
2019-01-29T19:48:34.165Z,48.27
2019-01-29T19:50:35.775Z,48.58
2019-01-29T19:52:37.370Z,48.29
2019-01-29T19:54:38.980Z,48.21
2019-01-29T19:56:40.583Z,48.38
2019-01-29T19:58:42.181Z,48.28
2019-01-29T20:00:43.802Z,48.72
2019-01-29T20:02:45.468Z,48.28
2019-01-29T20:04:47.055Z,48.50
2019-01-29T20:06:48.650Z,48.60
2019-01-29T20:08:50.318Z,48.74
2019-01-29T20:10:51.913Z,48.72
2019-01-29T20:12:53.503Z,49.04
2019-01-29T20:14:55.119Z,49.02
2019-01-29T20:16:56.820Z,48.91
2019-01-29T20:18:58.431Z,47.96
2019-01-29T20:21:00.188Z,47.96
2019-01-29T20:23:08.206Z,48.85
2019-01-29T20:25:03.444Z,49.13
2019-01-29T20:27:05.056Z,49.80
2019-01-29T20:29:06.662Z,49.24
2019-01-29T20:31:08.252Z,49.48
2019-01-29T20:33:09.891Z,49.65
2019-01-29T20:35:11.511Z,49.72
2019-01-29T20:37:13.128Z,49.14
2019-01-29T20:39:14.729Z,49.35
2019-01-29T20:41:16.349Z,48.97
2019-01-29T20:43:17.973Z,48.63
2019-01-29T20:45:19.575Z,48.77
2019-01-29T20:47:21.183Z,49.05
2019-01-29T20:49:22.782Z,48.78
2019-01-29T20:51:24.373Z,48.75
2019-01-29T20:53:25.976Z,48.37
2019-01-29T20:55:27.602Z,48.00
2019-01-29T20:57:29.197Z,47.96
2019-01-29T20:59:30.839Z,48.13
2019-01-29T21:01:32.444Z,47.71
2019-01-29T21:03:34.175Z,47.82
2019-01-29T21:05:35.769Z,47.88
2019-01-29T21:07:37.352Z,48.04
2019-01-29T21:09:38.959Z,48.23
2019-01-29T21:11:40.550Z,48.10
2019-01-29T21:13:42.160Z,47.86
2019-01-29T21:15:43.768Z,47.74
2019-01-29T21:17:45.412Z,48.25
2019-01-29T21:19:47.009Z,48.82
2019-01-29T21:21:48.606Z,48.99
2019-01-29T21:23:50.229Z,49.50
2019-01-29T21:25:51.812Z,49.54
2019-01-29T21:27:53.424Z,49.79
2019-01-29T21:29:55.022Z,49.93
2019-01-29T21:31:56.672Z,50.37
2019-01-29T21:33:58.288Z,50.53
2019-01-29T21:35:59.927Z,45.54
2019-01-29T21:38:01.532Z,34.31
2019-01-29T21:40:03.163Z,34.16
2019-01-29T21:42:04.809Z,33.54
2019-01-29T21:44:06.424Z,33.20
2019-01-29T21:46:08.018Z,35.92
2019-01-29T21:48:09.638Z,38.05
2019-01-29T21:50:11.763Z,37.91
2019-01-29T21:52:12.900Z,38.53
2019-01-29T21:54:14.513Z,39.35
2019-01-29T21:56:16.194Z,39.69
2019-01-29T21:58:17.779Z,40.22
2019-01-29T22:00:19.379Z,40.75
2019-01-29T22:02:20.972Z,41.08
2019-01-29T22:04:22.556Z,41.33
2019-01-29T22:06:24.187Z,41.65
2019-01-29T22:08:25.804Z,41.75
2019-01-29T22:10:27.401Z,42.03
2019-01-29T22:12:28.983Z,42.24
2019-01-29T22:14:30.578Z,42.50
2019-01-29T22:16:32.169Z,42.74
2019-01-29T22:18:33.768Z,43.15
2019-01-29T22:20:35.362Z,43.39
2019-01-29T22:22:36.987Z,43.55
2019-01-29T22:24:38.679Z,43.75
2019-01-29T22:26:40.342Z,43.87
2019-01-29T22:28:41.947Z,44.10
2019-01-29T22:30:43.592Z,44.45
2019-01-29T22:32:45.203Z,44.77
2019-01-29T22:34:47.312Z,45.08
2019-01-29T22:36:48.967Z,45.27
2019-01-29T22:38:50.561Z,45.65
2019-01-29T22:40:52.169Z,46.07
2019-01-29T22:42:53.902Z,46.04
2019-01-29T22:44:55.458Z,46.43
2019-01-29T22:46:57.053Z,46.47
2019-01-29T22:48:58.701Z,46.59
2019-01-29T22:51:00.302Z,46.84
2019-01-29T22:53:01.897Z,47.01
2019-01-29T22:55:03.532Z,47.22
2019-01-29T22:57:05.132Z,47.61
2019-01-29T22:59:06.729Z,47.80
2019-01-29T23:01:08.367Z,47.84
2019-01-29T23:03:09.953Z,48.13
2019-01-29T23:05:11.564Z,48.56
2019-01-29T23:07:13.216Z,48.57
2019-01-29T23:09:14.827Z,48.63
2019-01-29T23:11:16.421Z,48.88
2019-01-29T23:13:18.014Z,49.07
2019-01-29T23:15:19.627Z,49.10
2019-01-29T23:17:21.231Z,49.10
2019-01-29T23:19:22.880Z,49.28
2019-01-29T23:21:24.480Z,49.50
2019-01-29T23:23:26.073Z,49.45
2019-01-29T23:25:27.675Z,49.33
2019-01-29T23:27:29.279Z,49.34
2019-01-29T23:29:30.885Z,49.51
2019-01-29T23:31:32.521Z,49.44
2019-01-29T23:33:34.109Z,49.53
2019-01-29T23:35:35.720Z,49.52
2019-01-29T23:37:37.362Z,49.42
2019-01-29T23:39:38.958Z,49.50
2019-01-29T23:41:40.540Z,49.51
2019-01-29T23:43:42.122Z,49.52
2019-01-29T23:45:43.731Z,49.63
2019-01-29T23:47:45.353Z,49.47
2019-01-29T23:49:46.980Z,49.35
2019-01-29T23:51:48.617Z,49.26
2019-01-29T23:53:50.228Z,49.28
2019-01-29T23:55:51.844Z,49.09
2019-01-29T23:57:53.432Z,49.06
2019-01-29T23:59:55.065Z,48.97
